Time;durP1;ratioP1;P1;durP2;ratioP2;P2;SDS_P1;SDS_P2;PMS_P1;PMS_P2;Temp;Humidity;BMP_temperature;BMP_pressure;BME280_temperature;BME280_humidity;BME280_pressure;Samples;Min_cycle;Max_cycle;Signal;HPM_P1;HPM_P2
2022/04/19 00:00:05;;;;;;;18.52;12.57;;;7.70;99.90;;;;;;5086027;28;20039;-70
2022/04/19 00:02:30;;;;;;;17.85;12.38;;;7.70;99.90;;;;;;5087431;28;20058;-70
2022/04/19 00:04:58;;;;;;;18.15;12.35;;;7.70;99.90;;;;;;5088297;28;20127;-70
2022/04/19 00:07:24;;;;;;;19.25;11.98;;;7.70;99.90;;;;;;5079386;28;20036;-71
2022/04/19 00:09:50;;;;;;;18.33;12.40;;;7.70;99.90;;;;;;5088383;28;20451;-70
2022/04/19 00:12:15;;;;;;;23.67;13.02;;;7.70;99.90;;;;;;5087731;28;20122;-70
2022/04/19 00:14:41;;;;;;;18.92;12.80;;;7.70;99.90;;;;;;5086764;28;20040;-71
2022/04/19 00:17:07;;;;;;;18.30;12.25;;;7.60;99.90;;;;;;5088046;28;20467;-71
2022/04/19 00:19:33;;;;;;;19.85;12.52;;;7.60;99.90;;;;;;5072803;28;20356;-71
2022/04/19 00:21:58;;;;;;;17.52;12.60;;;7.60;99.90;;;;;;5072145;28;20036;-70
2022/04/19 00:24:28;;;;;;;19.63;12.52;;;7.60;99.90;;;;;;5088252;28;20032;-70
2022/04/19 00:26:54;;;;;;;18.73;12.23;;;7.50;99.90;;;;;;5084974;28;20051;-70
2022/04/19 00:29:20;;;;;;;20.25;12.98;;;7.50;99.90;;;;;;5082413;28;20543;-71
2022/04/19 00:31:46;;;;;;;19.50;12.40;;;7.40;99.90;;;;;;5090185;28;20135;-70
2022/04/19 00:34:11;;;;;;;18.55;11.77;;;7.40;99.90;;;;;;5086533;28;20036;-70
2022/04/19 00:36:37;;;;;;;20.67;11.82;;;7.40;99.90;;;;;;5085295;28;20402;-70
2022/04/19 00:39:03;;;;;;;17.75;11.43;;;7.40;99.90;;;;;;5083786;28;20088;-70
2022/04/19 00:41:29;;;;;;;16.70;11.30;;;7.30;99.90;;;;;;5087476;28;20032;-70
2022/04/19 00:43:55;;;;;;;17.00;11.30;;;7.20;99.90;;;;;;5084217;28;20051;-70
2022/04/19 00:46:21;;;;;;;18.83;12.05;;;7.10;99.90;;;;;;5085599;28;20064;-70
2022/04/19 00:48:46;;;;;;;17.50;11.85;;;7.10;99.90;;;;;;5084639;28;20044;-70
2022/04/19 00:51:13;;;;;;;19.30;11.82;;;7.10;99.90;;;;;;5067570;28;20040;-70
2022/04/19 00:53:40;;;;;;;17.20;11.75;;;7.00;99.90;;;;;;5086468;28;20042;-70
2022/04/19 00:56:07;;;;;;;18.60;10.85;;;7.10;99.90;;;;;;5086513;28;20422;-70
2022/04/19 00:58:33;;;;;;;14.20;10.45;;;7.00;99.90;;;;;;5088085;28;20036;-70
2022/04/19 01:01:00;;;;;;;13.75;9.73;;;6.80;99.90;;;;;;5090871;28;20046;-70
2022/04/19 01:03:25;;;;;;;17.00;11.80;;;6.60;99.90;;;;;;5091414;28;20028;-70
2022/04/19 01:05:53;;;;;;;19.73;12.10;;;6.40;99.90;;;;;;5090233;28;20504;-70
2022/04/19 01:08:20;;;;;;;18.10;11.18;;;6.20;99.90;;;;;;5089792;28;20502;-70
2022/04/19 01:10:46;;;;;;;17.15;10.90;;;6.10;99.90;;;;;;5083578;28;20136;-70
2022/04/19 01:13:18;;;;;;;16.83;11.73;;;6.00;99.90;;;;;;5079561;28;20123;-70
2022/04/19 01:15:50;;;;;;;19.70;12.05;;;6.10;99.90;;;;;;5089961;28;20043;-70
2022/04/19 01:18:23;;;;;;;17.05;12.00;;;6.10;99.90;;;;;;5090093;28;20442;-70
2022/04/19 01:20:49;;;;;;;17.33;11.15;;;6.10;99.90;;;;;;5090295;28;20068;-70
2022/04/19 01:23:18;;;;;;;14.57;10.20;;;6.20;99.90;;;;;;5089588;28;20126;-70
2022/04/19 01:25:43;;;;;;;15.73;10.40;;;6.10;99.90;;;;;;5085137;28;20040;-70
2022/04/19 01:28:09;;;;;;;13.68;9.63;;;6.10;99.90;;;;;;5083878;28;20059;-70
2022/04/19 01:30:36;;;;;;;15.05;10.68;;;5.90;99.90;;;;;;5071797;28;20036;-70
2022/04/19 01:33:02;;;;;;;14.13;9.80;;;5.90;99.90;;;;;;5090950;28;20044;-70
2022/04/19 01:35:28;;;;;;;15.65;10.10;;;5.80;99.90;;;;;;5089134;28;20506;-70
2022/04/19 01:37:53;;;;;;;18.70;11.68;;;5.80;99.90;;;;;;5089350;28;20036;-70
2022/04/19 01:40:19;;;;;;;19.77;11.32;;;5.80;99.90;;;;;;5088705;28;20036;-70
2022/04/19 01:42:58;;;;;;;17.55;11.60;;;5.80;99.90;;;;;;5090034;28;20048;-70
2022/04/19 01:45:28;;;;;;;19.67;12.75;;;5.80;99.90;;;;;;5090564;28;20483;-70
2022/04/19 01:47:58;;;;;;;50.70;24.70;;;5.70;99.90;;;;;;5085803;28;20055;-70
2022/04/19 01:50:26;;;;;;;41.88;19.15;;;5.80;99.90;;;;;;5085688;28;20054;-70
2022/04/19 01:52:53;;;;;;;28.00;15.68;;;5.70;99.90;;;;;;5090119;28;20530;-70
2022/04/19 01:55:20;;;;;;;26.88;14.65;;;5.60;99.90;;;;;;5087787;28;20032;-70
2022/04/19 01:57:52;;;;;;;75.32;32.70;;;5.50;99.90;;;;;;5089675;28;20063;-70
2022/04/19 02:00:18;;;;;;;80.82;33.97;;;5.50;99.90;;;;;;5082038;28;20505;-70
2022/04/19 02:02:44;;;;;;;54.63;26.85;;;5.60;99.90;;;;;;5088584;28;20032;-70
2022/04/19 02:05:10;;;;;;;39.03;20.33;;;5.60;99.90;;;;;;5089256;28;20131;-70
2022/04/19 02:07:40;;;;;;;32.38;16.73;;;5.50;99.90;;;;;;5088352;28;20378;-70
2022/04/19 02:10:08;;;;;;;24.98;15.00;;;5.40;99.90;;;;;;5088446;28;20050;-70
2022/04/19 02:12:33;;;;;;;21.65;12.98;;;5.40;99.90;;;;;;5086527;28;20086;-70
2022/04/19 02:14:59;;;;;;;23.55;13.13;;;5.40;99.90;;;;;;5087306;28;20071;-70
2022/04/19 02:17:25;;;;;;;18.50;11.98;;;5.40;99.90;;;;;;5070690;28;20035;-69
2022/04/19 02:20:06;;;;;;;16.10;10.65;;;5.40;99.90;;;;;;5087273;28;20173;-70
2022/04/19 02:22:35;;;;;;;17.80;11.20;;;5.40;99.90;;;;;;5088898;28;20505;-70
2022/04/19 02:25:00;;;;;;;18.52;10.60;;;5.40;99.90;;;;;;5089824;28;20522;-70
2022/04/19 02:27:33;;;;;;;14.73;9.95;;;5.30;99.90;;;;;;5088796;28;20036;-70
2022/04/19 02:30:04;;;;;;;16.08;9.98;;;5.30;99.90;;;;;;5088255;28;20044;-70
2022/04/19 02:32:31;;;;;;;16.87;10.90;;;5.30;99.90;;;;;;5087592;28;20051;-70
2022/04/19 02:34:57;;;;;;;16.88;10.80;;;5.40;99.90;;;;;;5088763;28;20301;-70
2022/04/19 02:37:23;;;;;;;16.13;10.85;;;5.40;99.90;;;;;;5089421;28;20036;-70
2022/04/19 02:39:49;;;;;;;14.63;10.40;;;5.40;99.90;;;;;;5088565;28;20491;-69
2022/04/19 02:42:15;;;;;;;18.77;11.35;;;5.40;99.90;;;;;;5089567;28;20039;-69
2022/04/19 02:44:41;;;;;;;17.27;10.82;;;5.30;99.90;;;;;;5087930;28;20047;-69
2022/04/19 02:47:06;;;;;;;18.63;11.80;;;5.30;99.90;;;;;;5087353;28;20635;-70
2022/04/19 02:49:33;;;;;;;17.40;11.10;;;5.30;99.90;;;;;;5088874;28;20071;-70
2022/04/19 02:51:58;;;;;;;17.48;11.07;;;5.30;99.90;;;;;;5088475;28;20044;-70
2022/04/19 02:54:24;;;;;;;21.10;12.05;;;5.30;99.90;;;;;;5088753;28;20040;-69
2022/04/19 02:56:49;;;;;;;17.50;10.80;;;5.30;99.90;;;;;;5087714;28;20076;-70
2022/04/19 02:59:15;;;;;;;16.95;11.43;;;5.20;99.90;;;;;;5087165;28;20044;-69
2022/04/19 03:01:42;;;;;;;18.38;11.00;;;5.20;99.90;;;;;;5089117;28;20040;-69
2022/04/19 03:04:07;;;;;;;21.33;12.23;;;5.20;99.90;;;;;;5085868;28;20051;-69
2022/04/19 03:06:33;;;;;;;21.25;12.00;;;5.20;99.90;;;;;;5086451;28;20036;-69
2022/04/19 03:08:59;;;;;;;23.25;12.43;;;5.10;99.90;;;;;;5088785;28;20372;-69
2022/04/19 03:11:24;;;;;;;19.27;11.45;;;5.00;99.90;;;;;;5088780;28;20035;-69
2022/04/19 03:13:50;;;;;;;21.92;12.88;;;4.90;99.90;;;;;;5089123;28;20059;-70
2022/04/19 03:16:16;;;;;;;18.60;12.90;;;4.80;99.90;;;;;;5089003;28;20032;-69
2022/04/19 03:18:42;;;;;;;21.23;12.63;;;4.90;99.90;;;;;;5085028;28;20395;-69
2022/04/19 03:21:09;;;;;;;26.58;14.13;;;4.90;99.90;;;;;;5080838;28;20063;-69
2022/04/19 03:29:03;;;;;;;23.55;13.48;;;5.00;99.90;;;;;;5086310;28;20063;-69
2022/04/19 03:31:29;;;;;;;22.55;13.25;;;5.00;99.90;;;;;;5086527;28;20036;-69
2022/04/19 03:33:54;;;;;;;25.38;13.95;;;4.90;99.90;;;;;;5087173;28;20047;-69
2022/04/19 03:36:20;;;;;;;27.08;15.07;;;4.90;99.90;;;;;;5087080;28;20043;-69
2022/04/19 03:38:46;;;;;;;25.08;14.75;;;4.80;99.90;;;;;;5087349;28;20130;-70
2022/04/19 03:41:12;;;;;;;25.27;15.23;;;4.90;99.90;;;;;;5087585;28;20543;-69
2022/04/19 03:43:38;;;;;;;29.80;16.25;;;4.90;99.90;;;;;;5083723;28;20052;-69
2022/04/19 03:46:04;;;;;;;29.55;16.50;;;4.80;99.90;;;;;;5087436;28;20497;-70
2022/04/19 03:48:30;;;;;;;29.00;15.90;;;4.80;99.90;;;;;;5088021;28;20110;-69
2022/04/19 03:50:55;;;;;;;28.98;17.10;;;4.80;99.90;;;;;;5084083;28;20065;-69
2022/04/19 03:53:21;;;;;;;31.90;17.02;;;4.80;99.90;;;;;;5087494;28;20039;-69
2022/04/19 03:55:47;;;;;;;26.95;15.50;;;4.80;99.90;;;;;;5068613;28;20045;-69
2022/04/19 03:58:12;;;;;;;28.13;15.77;;;4.80;99.90;;;;;;5088069;28;20036;-69
2022/04/19 04:00:38;;;;;;;33.95;17.80;;;4.80;99.90;;;;;;5086873;28;20483;-69
2022/04/19 04:03:05;;;;;;;28.48;16.35;;;4.80;99.90;;;;;;5069585;28;20466;-69
2022/04/19 04:05:30;;;;;;;31.00;17.48;;;4.70;99.90;;;;;;5086649;28;20097;-69
2022/04/19 04:07:57;;;;;;;29.58;17.80;;;4.70;99.90;;;;;;5088370;28;20044;-69
2022/04/19 04:10:23;;;;;;;34.50;17.60;;;4.60;99.90;;;;;;5086930;28;20084;-70
2022/04/19 04:12:48;;;;;;;32.55;18.48;;;4.60;99.90;;;;;;5087300;28;20474;-69
2022/04/19 04:15:14;;;;;;;36.17;19.63;;;4.60;99.90;;;;;;5087736;28;20098;-69
2022/04/19 04:17:40;;;;;;;35.88;19.33;;;4.60;99.90;;;;;;5087559;28;20491;-69
2022/04/19 04:20:06;;;;;;;35.83;20.17;;;4.50;99.90;;;;;;5087638;28;20039;-69
2022/04/19 04:22:31;;;;;;;38.75;21.40;;;4.50;99.90;;;;;;5068965;28;20459;-69
2022/04/19 04:24:57;;;;;;;40.75;21.70;;;4.50;99.90;;;;;;5069227;28;20127;-69
2022/04/19 04:27:22;;;;;;;41.83;22.08;;;4.50;99.90;;;;;;5087453;28;20151;-69
2022/04/19 04:29:48;;;;;;;45.92;22.13;;;4.50;99.90;;;;;;5087459;28;20470;-69
2022/04/19 04:32:13;;;;;;;39.22;21.50;;;4.50;99.90;;;;;;5074903;28;20089;-69
2022/04/19 04:34:39;;;;;;;39.60;21.55;;;4.50;99.90;;;;;;5092057;28;21113;-69
2022/04/19 04:37:05;;;;;;;34.97;20.63;;;4.40;99.90;;;;;;5091222;28;20038;-69
2022/04/19 04:39:30;;;;;;;37.75;21.33;;;4.30;99.90;;;;;;5089699;28;20111;-70
2022/04/19 04:41:56;;;;;;;33.47;18.50;;;4.30;99.90;;;;;;5092215;28;20081;-69
2022/04/19 04:44:21;;;;;;;34.78;19.30;;;4.30;99.90;;;;;;5090779;28;20429;-70
2022/04/19 04:49:37;;;;;;;39.33;21.20;;;4.30;99.90;;;;;;5090354;28;20043;-69
2022/04/19 04:52:08;;;;;;;38.55;20.38;;;4.30;99.90;;;;;;5091866;28;20058;-69
2022/04/19 04:54:35;;;;;;;44.95;21.90;;;4.50;99.90;;;;;;5088841;28;20117;-69
2022/04/19 04:57:02;;;;;;;43.08;22.58;;;4.50;99.90;;;;;;5089974;28;20182;-69
2022/04/19 04:59:29;;;;;;;36.85;20.60;;;4.60;99.90;;;;;;5090759;28;20149;-70
2022/04/19 05:01:55;;;;;;;38.35;21.27;;;4.70;99.90;;;;;;5087539;28;20127;-70
2022/04/19 05:04:20;;;;;;;34.67;19.85;;;4.80;99.90;;;;;;5090315;28;20499;-70
2022/04/19 05:06:46;;;;;;;40.00;22.17;;;4.90;99.90;;;;;;5091667;28;20079;-71
2022/04/19 05:09:11;;;;;;;43.00;22.20;;;4.90;99.90;;;;;;5088797;28;20497;-70
2022/04/19 05:11:37;;;;;;;39.45;20.80;;;4.90;99.90;;;;;;5090860;28;20169;-70
2022/04/19 05:14:03;;;;;;;38.42;21.20;;;4.90;99.90;;;;;;5090826;28;20181;-69
2022/04/19 05:16:28;;;;;;;37.00;20.17;;;5.00;99.90;;;;;;5089246;28;20542;-69
2022/04/19 05:18:54;;;;;;;37.13;21.27;;;5.00;99.90;;;;;;5089868;28;20044;-70
2022/04/19 05:21:20;;;;;;;31.02;19.20;;;5.00;99.90;;;;;;5090389;28;20036;-70
2022/04/19 05:23:46;;;;;;;36.70;20.35;;;5.10;99.90;;;;;;5090845;28;20040;-70
2022/04/19 05:26:11;;;;;;;32.92;18.38;;;5.20;99.90;;;;;;5088052;28;20052;-70
2022/04/19 05:28:37;;;;;;;31.98;17.73;;;5.30;99.90;;;;;;5088983;28;20036;-70
2022/04/19 05:31:02;;;;;;;34.30;18.73;;;5.40;99.90;;;;;;5089324;28;20489;-70
2022/04/19 05:33:28;;;;;;;32.72;17.63;;;5.40;99.90;;;;;;5090548;28;20085;-70
2022/04/19 05:35:55;;;;;;;30.27;16.67;;;5.50;99.90;;;;;;5088045;28;20044;-70
2022/04/19 05:38:20;;;;;;;29.15;16.65;;;5.50;99.90;;;;;;5090753;28;20040;-70
2022/04/19 05:40:46;;;;;;;29.08;17.00;;;5.50;99.90;;;;;;5089802;28;20036;-69
2022/04/19 05:43:12;;;;;;;31.42;16.40;;;5.60;99.90;;;;;;5089551;28;20074;-70
2022/04/19 05:45:39;;;;;;;27.23;17.92;;;5.70;99.90;;;;;;5090896;28;20094;-70
2022/04/19 05:48:05;;;;;;;30.30;17.60;;;5.80;99.90;;;;;;5087421;28;20517;-70
2022/04/19 05:50:31;;;;;;;28.90;17.00;;;5.90;99.90;;;;;;5073727;28;20044;-70
2022/04/19 05:52:56;;;;;;;29.63;17.35;;;6.00;99.90;;;;;;5087948;28;20074;-70
2022/04/19 05:55:22;;;;;;;31.23;17.95;;;6.10;99.90;;;;;;5081288;28;20039;-70
2022/04/19 05:57:47;;;;;;;28.85;17.52;;;6.20;99.90;;;;;;5084089;28;20093;-69
2022/04/19 06:00:13;;;;;;;27.80;16.73;;;6.40;99.90;;;;;;5087393;28;20036;-70
2022/04/19 06:05:23;;;;;;;32.13;17.52;;;6.70;99.90;;;;;;5083182;28;20048;-69
2022/04/19 06:07:52;;;;;;;28.33;16.15;;;6.80;99.90;;;;;;5084354;28;20048;-69
2022/04/19 06:10:18;;;;;;;28.10;15.55;;;6.90;99.90;;;;;;5083949;28;20074;-69
2022/04/19 06:12:44;;;;;;;30.23;16.35;;;7.10;99.90;;;;;;5083579;28;20437;-69
2022/04/19 06:15:12;;;;;;;28.00;16.70;;;7.20;99.90;;;;;;5084217;28;20042;-68
2022/04/19 06:17:40;;;;;;;31.27;16.27;;;7.40;99.90;;;;;;5086327;28;20072;-68
2022/04/19 06:20:07;;;;;;;32.33;16.77;;;7.40;99.90;;;;;;5084123;28;20085;-68
2022/04/19 06:22:33;;;;;;;27.55;16.10;;;7.60;99.90;;;;;;5082661;28;20074;-69
2022/04/19 06:24:59;;;;;;;26.85;15.18;;;7.70;99.90;;;;;;5086565;28;20421;-69
2022/04/19 06:27:25;;;;;;;25.92;15.20;;;7.80;99.90;;;;;;5085173;28;20040;-70
2022/04/19 06:29:52;;;;;;;26.98;14.48;;;8.00;99.90;;;;;;5066934;28;20032;-69
2022/04/19 06:32:19;;;;;;;26.73;15.30;;;8.10;99.90;;;;;;5086402;28;20087;-69
2022/04/19 06:34:44;;;;;;;25.63;15.00;;;8.20;99.90;;;;;;5085555;28;20048;-70
2022/04/19 06:37:10;;;;;;;24.45;14.18;;;8.40;99.90;;;;;;5085730;28;20044;-70
2022/04/19 06:39:36;;;;;;;26.42;15.35;;;8.60;99.90;;;;;;5082310;28;20105;-69
2022/04/19 06:42:01;;;;;;;24.40;14.32;;;8.60;99.90;;;;;;5085339;28;20032;-71
2022/04/19 06:44:27;;;;;;;24.50;14.38;;;8.70;99.90;;;;;;5086762;28;20040;-70
2022/04/19 06:46:53;;;;;;;24.40;13.55;;;8.90;99.90;;;;;;5084106;28;20664;-71
2022/04/19 06:49:18;;;;;;;21.73;13.38;;;9.10;99.90;;;;;;5088058;28;20505;-69
2022/04/19 06:51:44;;;;;;;23.58;14.40;;;9.20;99.90;;;;;;5087716;28;20046;-69
2022/04/19 06:54:12;;;;;;;26.63;14.20;;;9.30;99.90;;;;;;5085837;28;20040;-69
2022/04/19 06:56:37;;;;;;;20.63;13.35;;;9.40;99.90;;;;;;5088219;28;20036;-70
2022/04/19 06:59:03;;;;;;;24.08;13.30;;;9.60;99.90;;;;;;5091989;28;20445;-68
2022/04/19 07:01:29;;;;;;;21.92;13.77;;;9.70;99.90;;;;;;5088964;28;20584;-71
2022/04/19 07:03:54;;;;;;;22.27;12.93;;;9.80;99.90;;;;;;5083211;28;20517;-68
2022/04/19 07:06:20;;;;;;;23.90;13.60;;;9.90;99.90;;;;;;5088754;28;20089;-69
2022/04/19 07:08:46;;;;;;;21.35;12.75;;;10.00;99.90;;;;;;5089235;28;20036;-69
2022/04/19 07:11:17;;;;;;;21.02;12.80;;;10.10;99.90;;;;;;5089087;28;20172;-70
2022/04/19 07:13:43;;;;;;;21.70;13.50;;;10.30;99.90;;;;;;5082154;28;20487;-70
2022/04/19 07:16:09;;;;;;;21.35;12.77;;;10.40;99.90;;;;;;5083040;28;20036;-70
2022/04/19 07:18:35;;;;;;;20.48;12.32;;;10.50;99.90;;;;;;5080791;28;20027;-71
2022/04/19 07:26:38;;;;;;;23.80;13.30;;;10.90;99.90;;;;;;5080174;28;20173;-70
2022/04/19 07:29:13;;;;;;;21.13;12.75;;;11.00;99.90;;;;;;5085374;28;20044;-70
2022/04/19 07:31:47;;;;;;;19.73;12.57;;;11.10;99.90;;;;;;5087266;28;20490;-70
2022/04/19 07:34:13;;;;;;;21.75;12.80;;;11.20;99.90;;;;;;5078602;28;20103;-69
2022/04/19 07:36:42;;;;;;;24.02;11.90;;;11.40;99.90;;;;;;5081969;28;20039;-70
2022/04/19 07:39:12;;;;;;;20.67;12.20;;;11.50;99.90;;;;;;5079897;28;20032;-70
2022/04/19 07:41:39;;;;;;;19.40;11.57;;;11.60;99.90;;;;;;5083940;28;20040;-70
2022/04/19 07:44:05;;;;;;;19.88;12.00;;;11.60;99.90;;;;;;5083680;28;20089;-70
2022/04/19 07:46:32;;;;;;;21.25;12.15;;;11.70;99.90;;;;;;5086000;28;20193;-70
2022/04/19 07:48:58;;;;;;;20.80;12.32;;;11.80;99.90;;;;;;5083517;28;20040;-70
2022/04/19 07:51:24;;;;;;;23.73;12.60;;;12.00;99.90;;;;;;5085739;28;20038;-72
2022/04/19 07:53:50;;;;;;;20.05;11.98;;;12.10;99.90;;;;;;5086205;28;20403;-70
2022/04/19 07:56:15;;;;;;;20.95;12.25;;;12.20;99.90;;;;;;5071370;28;20036;-71
2022/04/19 07:58:42;;;;;;;25.38;12.48;;;12.30;99.90;;;;;;5088374;28;20048;-68
2022/04/19 08:01:10;;;;;;;22.67;12.38;;;12.40;99.90;;;;;;5071787;28;20437;-73
2022/04/19 08:03:36;;;;;;;18.92;11.30;;;12.60;99.90;;;;;;5070879;28;20441;-70
2022/04/19 08:06:01;;;;;;;21.23;11.80;;;12.60;99.90;;;;;;5086390;28;20081;-75
2022/04/19 08:08:27;;;;;;;20.73;10.30;;;12.70;99.90;;;;;;5087572;28;20040;-68
2022/04/19 08:10:52;;;;;;;23.65;10.82;;;12.80;99.90;;;;;;5088196;28;20052;-70
2022/04/19 08:13:18;;;;;;;19.50;11.23;;;12.90;99.90;;;;;;5084158;28;20036;-74
2022/04/19 08:15:44;;;;;;;22.55;11.18;;;13.00;99.90;;;;;;5088438;28;20544;-74
2022/04/19 08:18:13;;;;;;;19.00;11.15;;;13.10;99.90;;;;;;5092128;28;20421;-74
2022/04/19 08:20:43;;;;;;;19.50;11.68;;;13.20;99.90;;;;;;5088460;28;20071;-69
2022/04/19 08:23:09;;;;;;;22.45;11.75;;;13.30;99.90;;;;;;5080513;28;20046;-70
2022/04/19 08:25:36;;;;;;;21.52;10.90;;;13.40;99.90;;;;;;5088272;28;20043;-71
2022/04/19 08:28:02;;;;;;;16.05;8.57;;;13.50;99.90;;;;;;5084077;28;21794;-70
2022/04/19 08:30:27;;;;;;;17.73;9.57;;;13.50;99.90;;;;;;5082652;28;20075;-68
2022/04/19 08:32:53;;;;;;;18.13;9.48;;;13.60;99.90;;;;;;5086233;28;20067;-71
2022/04/19 08:35:18;;;;;;;22.27;10.93;;;13.60;99.90;;;;;;5088159;28;20047;-70
2022/04/19 08:37:45;;;;;;;19.90;9.88;;;13.70;99.90;;;;;;5084993;28;20051;-68
2022/04/19 08:40:12;;;;;;;18.05;9.85;;;13.90;99.90;;;;;;5084778;28;20040;-71
2022/04/19 08:42:40;;;;;;;19.33;10.55;;;14.00;99.90;;;;;;5087495;28;20589;-71
2022/04/19 08:45:08;;;;;;;20.38;9.70;;;14.10;99.90;;;;;;5086122;28;20044;-69
2022/04/19 08:47:45;;;;;;;17.05;9.57;;;14.20;99.90;;;;;;5087114;28;20042;-71
2022/04/19 08:50:17;;;;;;;17.67;9.38;;;14.40;99.90;;;;;;5086951;28;20449;-71
2022/04/19 08:52:43;;;;;;;16.20;9.55;;;14.50;99.90;;;;;;5085133;28;20048;-71
2022/04/19 08:57:55;;;;;;;13.88;8.30;;;14.60;99.90;;;;;;5087727;28;20047;-71
2022/04/19 09:00:24;;;;;;;14.20;8.32;;;14.60;99.90;;;;;;5083190;28;20047;-71
2022/04/19 09:02:50;;;;;;;13.40;7.93;;;14.70;99.90;;;;;;5069438;28;20504;-67
2022/04/19 09:05:26;;;;;;;15.52;7.72;;;14.80;99.90;;;;;;5085129;28;20047;-70
2022/04/19 09:07:53;;;;;;;14.13;7.82;;;14.80;99.90;;;;;;5086589;28;20040;-67
2022/04/19 09:10:29;;;;;;;15.95;8.13;;;14.90;99.90;;;;;;5086199;28;20375;-71
2022/04/19 09:13:02;;;;;;;13.15;7.63;;;15.00;99.90;;;;;;5087077;28;20047;-72
2022/04/19 09:15:49;;;;;;;15.80;8.05;;;15.10;99.90;;;;;;5085249;28;20044;-70
2022/04/19 09:18:32;;;;;;;14.80;7.90;;;15.20;99.90;;;;;;5074316;28;20540;-68
2022/04/19 09:21:01;;;;;;;17.63;8.05;;;15.20;99.90;;;;;;5088616;28;20082;-68
2022/04/19 09:23:29;;;;;;;16.25;8.82;;;15.30;99.90;;;;;;5082335;28;20032;-69
2022/04/19 09:25:57;;;;;;;15.63;7.85;;;15.30;99.90;;;;;;5074600;28;20395;-72
2022/04/19 09:28:24;;;;;;;17.15;8.23;;;15.30;99.90;;;;;;5090974;28;20032;-73
2022/04/19 09:30:52;;;;;;;15.52;8.65;;;15.40;99.90;;;;;;5078502;28;20602;-68
2022/04/19 09:33:19;;;;;;;15.80;9.25;;;15.50;99.90;;;;;;5089004;28;20474;-69
2022/04/19 09:35:56;;;;;;;20.63;9.98;;;15.50;99.90;;;;;;5082887;28;20071;-68
2022/04/19 09:38:42;;;;;;;16.80;9.52;;;15.60;99.90;;;;;;5088578;28;20127;-67
2022/04/19 09:41:14;;;;;;;16.70;9.60;;;15.80;99.90;;;;;;5088241;28;20043;-67
2022/04/19 09:43:40;;;;;;;15.73;9.63;;;15.80;99.90;;;;;;5086722;28;20040;-67
2022/04/19 09:46:07;;;;;;;16.50;9.52;;;15.80;99.90;;;;;;5091877;28;20046;-71
2022/04/19 09:48:37;;;;;;;17.05;9.30;;;15.90;99.90;;;;;;5091790;28;20075;-69
2022/04/19 09:51:10;;;;;;;16.52;10.23;;;15.90;99.90;;;;;;5092675;28;20123;-71
2022/04/19 09:53:43;;;;;;;18.25;9.93;;;16.00;99.90;;;;;;5091726;28;20089;-70
2022/04/19 09:56:19;;;;;;;14.15;8.27;;;16.00;99.90;;;;;;5092004;28;20048;-70
2022/04/19 09:58:47;;;;;;;16.15;8.27;;;16.00;97.70;;;;;;5072954;28;20047;-73
2022/04/19 10:09:36;;;;;;;14.18;6.22;;;16.10;93.70;;;;;;5091331;28;20043;-70
2022/04/19 10:12:03;;;;;;;10.45;6.63;;;16.10;94.70;;;;;;5092189;28;20036;-67
2022/04/19 10:14:30;;;;;;;12.23;7.32;;;16.10;98.60;;;;;;5090380;28;20040;-71
2022/04/19 10:17:00;;;;;;;11.63;6.93;;;16.20;98.60;;;;;;5077442;28;20041;-68
2022/04/19 10:19:27;;;;;;;10.57;6.18;;;16.30;96.50;;;;;;5071343;28;20040;-71
2022/04/19 10:21:54;;;;;;;8.73;5.82;;;16.20;91.10;;;;;;5072186;28;20522;-69
2022/04/19 10:24:20;;;;;;;7.95;4.85;;;16.20;84.70;;;;;;5071101;28;20119;-69
2022/04/19 10:26:48;;;;;;;6.72;3.50;;;16.20;82.20;;;;;;5071657;28;20047;-69
2022/04/19 10:29:17;;;;;;;6.50;4.22;;;16.20;82.20;;;;;;5084936;28;20052;-70
2022/04/19 10:32:03;;;;;;;9.90;4.32;;;16.20;73.00;;;;;;5089929;28;20048;-67
2022/04/19 10:34:40;;;;;;;4.28;2.90;;;16.20;83.00;;;;;;5088947;28;20240;-69
2022/04/19 10:37:11;;;;;;;7.07;2.63;;;16.30;67.90;;;;;;5090119;28;20111;-71
2022/04/19 10:39:44;;;;;;;6.63;2.70;;;16.20;54.00;;;;;;5070637;28;20055;-72
2022/04/19 10:42:25;;;;;;;;;;;16.20;57.00;;;;;;5071582;28;20048;-68
2022/04/19 10:44:52;;;;;;;7.22;3.20;;;16.20;58.30;;;;;;5085193;28;20007;-71
2022/04/19 10:47:28;;;;;;;7.85;3.25;;;16.30;61.60;;;;;;5084637;28;20032;-73
2022/04/19 10:50:05;;;;;;;5.88;3.22;;;16.40;60.40;;;;;;5090763;28;20078;-71
2022/04/19 10:52:39;;;;;;;6.13;3.97;;;16.40;59.00;;;;;;5091234;28;20044;-69
2022/04/19 10:55:11;;;;;;;8.48;3.55;;;16.50;60.20;;;;;;5090613;28;20044;-69
2022/04/19 11:00:29;;;;;;;4.47;2.80;;;16.60;62.80;;;;;;5087325;28;20603;-74
2022/04/19 11:03:06;;;;;;;6.00;3.20;;;16.80;62.40;;;;;;5085047;28;20036;-74
2022/04/19 11:05:48;;;;;;;5.03;3.30;;;16.80;55.70;;;;;;5091749;28;20173;-76
2022/04/19 11:08:38;;;;;;;3.80;2.40;;;16.80;59.70;;;;;;5090411;28;20488;-69
2022/04/19 11:11:20;;;;;;;7.43;3.00;;;16.90;60.30;;;;;;5081652;28;20122;-73
2022/04/19 11:14:18;;;;;;;3.60;2.55;;;16.90;54.40;;;;;;5090971;28;20067;-75
2022/04/19 11:16:45;;;;;;;5.30;2.72;;;16.90;57.90;;;;;;5088447;28;20087;-78
2022/04/19 11:19:17;;;;;;;4.78;3.33;;;16.90;54.00;;;;;;5088345;28;20035;-76
2022/04/19 11:21:47;;;;;;;5.60;2.80;;;16.70;53.40;;;;;;5091001;28;20051;-76
2022/04/19 11:24:33;;;;;;;4.13;2.70;;;16.70;55.30;;;;;;5091090;28;20071;-76
2022/04/19 11:26:58;;;;;;;6.00;3.13;;;16.70;57.90;;;;;;5090416;28;20035;-74
2022/04/19 11:29:24;;;;;;;3.80;2.65;;;16.80;58.60;;;;;;5088614;28;20036;-70
2022/04/19 11:31:49;;;;;;;5.68;2.22;;;16.90;58.50;;;;;;5090273;28;20044;-74
2022/04/19 11:34:16;;;;;;;4.05;2.60;;;16.90;60.50;;;;;;5091290;28;20051;-74
2022/04/19 11:36:43;;;;;;;9.05;2.90;;;16.90;57.20;;;;;;5075351;28;20444;-80
2022/04/19 11:47:55;;;;;;;3.85;2.75;;;16.70;56.90;;;;;;5090900;28;20434;-73
2022/04/19 11:50:31;;;;;;;5.28;2.42;;;16.80;57.80;;;;;;5084453;28;20040;-76
2022/04/19 11:52:58;;;;;;;6.57;2.95;;;16.90;58.80;;;;;;5089372;28;20545;-73
2022/04/19 11:55:25;;;;;;;7.13;3.03;;;17.00;57.60;;;;;;5089607;28;20032;-70
2022/04/19 11:58:06;;;;;;;5.05;2.95;;;17.00;58.10;;;;;;5090523;28;20130;-78
2022/04/19 12:00:32;;;;;;;2.53;2.22;;;17.00;59.90;;;;;;5088392;28;20077;-71
2022/04/19 12:02:58;;;;;;;4.47;2.28;;;17.00;61.30;;;;;;5090429;28;20044;-72
2022/04/19 12:05:28;;;;;;;3.97;2.28;;;17.10;60.10;;;;;;5090639;28;20046;-70
2022/04/19 12:07:55;;;;;;;4.57;2.10;;;17.20;60.50;;;;;;5090540;28;20062;-74
2022/04/19 12:10:21;;;;;;;4.95;2.50;;;17.30;57.40;;;;;;5089439;28;20048;-74
2022/04/19 12:12:48;;;;;;;3.03;2.22;;;17.30;58.50;;;;;;5073464;28;20391;-71
2022/04/19 12:15:41;;;;;;;5.88;2.65;;;17.20;55.10;;;;;;5089622;28;20057;-80
2022/04/19 12:18:08;;;;;;;5.05;2.28;;;17.20;53.50;;;;;;5090966;28;20036;-76
2022/04/19 12:20:46;;;;;;;4.93;2.97;;;17.20;61.20;;;;;;5088142;28;20043;-75
2022/04/19 12:23:18;;;;;;;7.65;2.72;;;17.30;61.70;;;;;;5090183;28;20051;-75
2022/04/19 12:26:04;;;;;;;4.07;2.90;;;17.40;57.50;;;;;;5086944;28;20063;-79
2022/04/19 12:28:38;;;;;;;4.72;2.60;;;17.50;61.50;;;;;;5089163;28;21459;-69
2022/04/19 12:31:04;;;;;;;6.38;2.67;;;17.60;62.30;;;;;;5086942;28;20043;-76
2022/04/19 12:33:29;;;;;;;4.30;2.70;;;17.70;61.70;;;;;;5088201;28;20043;-80
2022/04/19 12:35:55;;;;;;;7.15;3.28;;;17.70;59.90;;;;;;5103985;28;20036;-74
2022/04/19 12:38:29;;;;;;;5.60;3.20;;;17.70;60.00;;;;;;5088512;28;20072;-75
2022/04/19 12:40:54;;;;;;;5.85;3.17;;;17.90;61.50;;;;;;5088229;28;20044;-75
2022/04/19 12:43:20;;;;;;;6.65;3.08;;;17.90;61.80;;;;;;5089605;28;20426;-78
2022/04/19 12:45:46;;;;;;;3.03;2.15;;;18.00;62.70;;;;;;5090006;28;20398;-81
2022/04/19 12:48:23;;;;;;;5.32;2.75;;;17.90;58.00;;;;;;5090118;28;20109;-72
2022/04/19 12:51:00;;;;;;;5.15;2.80;;;17.90;57.10;;;;;;5089996;28;20109;-76
2022/04/19 12:53:25;;;;;;;4.47;2.70;;;17.80;56.30;;;;;;5094557;28;20069;-79
2022/04/19 12:55:51;;;;;;;4.18;2.72;;;17.70;56.90;;;;;;5095323;28;20044;-78
2022/04/19 12:58:16;;;;;;;4.13;2.83;;;17.60;56.60;;;;;;5094403;28;20040;-80
2022/04/19 13:00:42;;;;;;;8.57;2.88;;;17.70;58.60;;;;;;5093415;28;20249;-79
2022/04/19 13:03:07;;;;;;;5.03;2.90;;;17.80;60.20;;;;;;5093819;28;20043;-75
2022/04/19 13:13:45;;;;;;;6.57;2.80;;;17.70;57.80;;;;;;5093420;28;20113;-78
2022/04/19 13:16:11;;;;;;;5.35;3.20;;;17.70;56.20;;;;;;5094874;28;20040;-74
2022/04/19 13:18:36;;;;;;;4.88;2.75;;;17.80;57.60;;;;;;5093686;28;20418;-73
2022/04/19 13:21:02;;;;;;;8.00;3.00;;;17.80;56.00;;;;;;5093041;28;20122;-73
2022/04/19 13:23:27;;;;;;;4.53;2.70;;;17.90;59.30;;;;;;5092861;28;20074;-72
2022/04/19 13:25:54;;;;;;;4.50;2.50;;;17.90;58.10;;;;;;5100835;28;20052;-82
2022/04/19 13:28:19;;;;;;;5.97;2.50;;;18.00;57.00;;;;;;5095325;28;20525;-79